createdAt,value
2023-05-25T00:01:50.949Z,19.40
2023-05-25T00:04:38.612Z,19.50
2023-05-25T00:07:19.008Z,19.50
2023-05-25T00:10:06.362Z,19.50
2023-05-25T00:12:45.934Z,19.40
2023-05-25T00:15:40.009Z,19.40
2023-05-25T00:18:20.188Z,19.40
2023-05-25T00:21:12.085Z,19.40
2023-05-25T00:23:59.069Z,19.40
2023-05-25T00:26:38.978Z,19.40
2023-05-25T00:29:27.144Z,19.40
2023-05-25T00:32:07.975Z,19.40
2023-05-25T00:34:48.439Z,19.50
2023-05-25T00:37:34.995Z,19.50
2023-05-25T00:40:22.096Z,19.60
2023-05-25T00:43:02.997Z,19.60
2023-05-25T00:45:56.996Z,19.50
2023-05-25T00:48:46.007Z,19.40
2023-05-25T00:51:26.134Z,19.30
2023-05-25T00:54:13.063Z,19.20
2023-05-25T00:56:54.191Z,19.20
2023-05-25T00:59:48.017Z,19.30
2023-05-25T01:02:29.357Z,19.30
2023-05-25T01:05:17.035Z,19.30
2023-05-25T01:08:00.156Z,19.40
2023-05-25T01:10:48.021Z,19.30
2023-05-25T01:13:28.259Z,19.30
2023-05-25T01:16:16.133Z,19.30
2023-05-25T01:18:56.199Z,19.20
2023-05-25T01:21:49.082Z,19.20
2023-05-25T01:24:35.227Z,19.20
2023-05-25T01:27:37.102Z,19.20
2023-05-25T01:30:24.202Z,19.20
2023-05-25T01:33:04.059Z,19.20
2023-05-25T01:35:58.045Z,19.30
2023-05-25T01:38:45.220Z,19.30
2023-05-25T01:41:25.134Z,19.30
2023-05-25T01:44:19.066Z,19.30
2023-05-25T01:47:17.093Z,19.30
2023-05-25T01:50:04.802Z,19.30
2023-05-25T01:52:48.087Z,19.30
2023-05-25T01:55:36.549Z,19.30
2023-05-25T01:58:18.066Z,19.20
2023-05-25T02:01:06.296Z,19.20
2023-05-25T02:03:49.251Z,19.20
2023-05-25T02:06:36.290Z,19.20
2023-05-25T02:09:16.142Z,19.10
2023-05-25T02:12:04.274Z,19.20
2023-05-25T02:14:44.180Z,19.20
2023-05-25T02:17:31.390Z,19.10
2023-05-25T02:20:15.117Z,19.10
2023-05-25T02:23:02.275Z,19.00
2023-05-25T02:25:44.375Z,19.00
2023-05-25T02:28:31.428Z,19.00
2023-05-25T02:34:00.274Z,18.90
2023-05-25T02:36:55.178Z,18.90
2023-05-25T02:39:42.125Z,18.90
2023-05-25T02:42:29.217Z,18.80
2023-05-25T02:45:17.239Z,18.80
2023-05-25T02:47:57.374Z,18.80
2023-05-25T02:50:46.293Z,18.80
2023-05-25T02:53:26.377Z,18.80
2023-05-25T02:56:17.223Z,18.80
2023-05-25T02:58:57.245Z,18.80
2023-05-25T03:01:47.302Z,18.80
2023-05-25T03:04:27.354Z,18.80
2023-05-25T03:07:14.196Z,18.80
2023-05-25T03:10:27.355Z,18.80
2023-05-25T03:13:21.233Z,18.80
2023-05-25T03:16:08.353Z,18.90
2023-05-25T03:18:48.166Z,18.90
2023-05-25T03:21:43.185Z,18.90
2023-05-25T03:24:26.850Z,19.00
2023-05-25T03:27:16.161Z,19.00
2023-05-25T03:30:03.371Z,19.00
2023-05-25T03:32:43.277Z,19.00
2023-05-25T03:35:30.392Z,19.00
2023-05-25T03:38:10.220Z,19.00
2023-05-25T03:40:57.388Z,19.00
2023-05-25T03:43:38.224Z,19.10
2023-05-25T03:49:45.251Z,19.10
2023-05-25T03:52:26.423Z,19.10
2023-05-25T03:55:13.290Z,19.20
2023-05-25T03:57:53.381Z,19.20
2023-05-25T04:00:43.230Z,19.20
2023-05-25T04:03:27.965Z,19.30
2023-05-25T04:06:15.276Z,19.40
2023-05-25T04:08:58.099Z,19.40
2023-05-25T04:11:47.233Z,19.40
2023-05-25T04:14:34.313Z,19.50
2023-05-25T04:17:25.021Z,19.60
2023-05-25T04:20:05.437Z,19.80
2023-05-25T04:22:53.618Z,19.80
2023-05-25T04:25:34.277Z,20.00
2023-05-25T04:28:21.417Z,20.00
2023-05-25T04:31:05.336Z,20.10
2023-05-25T04:34:09.805Z,20.10
2023-05-25T04:37:04.274Z,20.20
2023-05-25T04:39:45.515Z,20.20
2023-05-25T04:42:32.293Z,20.20
2023-05-25T04:45:28.263Z,20.30
2023-05-25T04:48:16.305Z,20.30
2023-05-25T04:50:56.441Z,20.30
2023-05-25T04:53:44.285Z,20.40
2023-05-25T04:56:27.002Z,20.50
2023-05-25T04:59:14.355Z,20.60
2023-05-25T05:02:01.301Z,20.70
2023-05-25T05:04:48.404Z,20.80
2023-05-25T05:07:30.292Z,20.80
2023-05-25T05:10:42.604Z,20.90
2023-05-25T05:13:30.837Z,20.90
2023-05-25T05:16:11.455Z,20.90
2023-05-25T05:18:58.409Z,21.00
2023-05-25T05:21:38.710Z,21.00
2023-05-25T05:24:26.330Z,21.00
2023-05-25T05:27:06.429Z,21.00
2023-05-25T05:30:04.400Z,21.10
2023-05-25T05:32:51.525Z,21.10
2023-05-25T05:35:36.640Z,21.20
2023-05-25T05:38:27.449Z,21.30
2023-05-25T05:41:14.597Z,21.40
2023-05-25T05:43:56.408Z,21.50
2023-05-25T05:46:43.756Z,21.60
2023-05-25T05:49:23.334Z,21.70
2023-05-25T05:52:11.573Z,21.80
2023-05-25T05:54:52.399Z,21.90
2023-05-25T05:57:32.615Z,22.10
2023-05-25T06:00:20.384Z,22.20
2023-05-25T06:03:01.223Z,22.30
2023-05-25T06:05:48.500Z,22.40
2023-05-25T06:08:28.677Z,22.40
2023-05-25T06:11:16.471Z,22.50
2023-05-25T06:14:03.476Z,22.50
2023-05-25T06:16:44.405Z,22.40
2023-05-25T06:19:32.576Z,22.40
2023-05-25T06:22:13.375Z,22.30
2023-05-25T06:25:01.812Z,22.20
2023-05-25T06:27:41.423Z,22.20
2023-05-25T06:30:35.523Z,22.30
2023-05-25T06:33:15.656Z,22.30
2023-05-25T06:36:06.454Z,22.40
2023-05-25T06:38:53.537Z,22.50
2023-05-25T06:41:34.383Z,22.60
2023-05-25T06:44:21.551Z,22.80
2023-05-25T06:47:08.432Z,22.90
2023-05-25T06:49:48.514Z,23.20
2023-05-25T06:52:35.409Z,23.50
2023-05-25T07:26:44.968Z,25.20
2023-05-25T07:29:24.706Z,25.40
2023-05-25T07:32:11.641Z,25.70
2023-05-25T07:34:51.458Z,26.10
2023-05-25T07:37:38.613Z,26.40
2023-05-25T07:40:18.467Z,26.60
2023-05-25T07:42:59.077Z,26.50
2023-05-25T07:45:45.732Z,26.50
2023-05-25T07:48:32.754Z,26.60
2023-05-25T07:51:12.559Z,27.00
2023-05-25T07:54:00.226Z,27.40
2023-05-25T07:59:28.676Z,28.10
2023-05-25T08:02:08.571Z,28.00
2023-05-25T08:04:56.418Z,28.30
2023-05-25T08:07:36.554Z,28.80
2023-05-25T08:10:23.802Z,28.40
2023-05-25T08:13:03.521Z,28.20
2023-05-25T08:15:50.565Z,28.00
2023-05-25T08:18:31.727Z,27.70
2023-05-25T08:21:18.582Z,27.40
2023-05-25T08:23:58.645Z,27.20
2023-05-25T08:29:32.784Z,27.10
2023-05-25T08:32:19.559Z,27.30
2023-05-25T08:34:59.749Z,27.60
2023-05-25T08:37:46.798Z,27.70
2023-05-25T08:40:29.013Z,27.80
2023-05-25T08:43:15.612Z,27.90
2023-05-25T08:46:05.775Z,27.90
2023-05-25T08:48:45.665Z,28.00
2023-05-25T08:51:32.688Z,28.00
2023-05-25T08:54:14.756Z,27.90
2023-05-25T08:57:21.686Z,27.80
2023-05-25T09:00:07.705Z,27.60
2023-05-25T09:03:01.623Z,27.70
2023-05-25T09:05:48.734Z,27.70
2023-05-25T09:08:29.612Z,27.40
2023-05-25T09:11:10.199Z,27.40
2023-05-25T09:13:57.583Z,27.60
2023-05-25T09:16:46.955Z,27.60
2023-05-25T09:19:26.611Z,27.50
2023-05-25T09:22:16.772Z,27.30
2023-05-25T09:24:56.670Z,27.00
2023-05-25T09:27:43.786Z,26.90
2023-05-25T09:30:23.627Z,26.90
2023-05-25T09:33:19.857Z,27.30
2023-05-25T09:35:59.827Z,27.70
2023-05-25T09:38:47.242Z,27.80
2023-05-25T09:41:28.904Z,28.10
2023-05-25T09:44:15.784Z,28.70
2023-05-25T09:47:02.657Z,29.50
2023-05-25T09:49:44.723Z,30.00
2023-05-25T09:52:31.699Z,30.00
2023-05-25T09:55:22.686Z,29.80
2023-05-25T09:58:09.787Z,29.40
2023-05-25T10:00:52.688Z,29.10
2023-05-25T10:03:43.718Z,28.90
2023-05-25T10:06:25.665Z,28.70
2023-05-25T10:09:14.866Z,28.60
2023-05-25T10:11:57.737Z,28.70
2023-05-25T10:14:44.914Z,29.00
2023-05-25T10:17:36.884Z,29.60
2023-05-25T10:20:26.081Z,30.20
2023-05-25T10:23:11.774Z,31.20
2023-05-25T10:26:01.901Z,32.20
2023-05-25T10:28:50.845Z,32.00
2023-05-25T10:31:32.190Z,31.10
2023-05-25T10:34:19.811Z,30.30
2023-05-25T10:37:01.046Z,30.50
2023-05-25T10:39:49.794Z,30.30
2023-05-25T10:42:36.756Z,30.50
2023-05-25T10:45:30.819Z,30.80
2023-05-25T10:48:17.763Z,31.00
2023-05-25T10:50:57.858Z,30.50
2023-05-25T10:53:44.813Z,29.80
2023-05-25T10:56:24.823Z,29.20
2023-05-25T10:59:11.765Z,28.80
2023-05-25T11:01:57.895Z,28.50
2023-05-25T11:04:44.878Z,28.10
2023-05-25T11:07:24.877Z,27.80
2023-05-25T11:10:11.813Z,27.50
2023-05-25T11:12:52.957Z,27.20
2023-05-25T11:15:39.774Z,26.80
2023-05-25T11:18:22.893Z,26.60
2023-05-25T11:21:29.909Z,26.40
2023-05-25T11:24:10.981Z,26.30
2023-05-25T11:27:02.968Z,26.20
2023-05-25T11:29:42.999Z,26.20
2023-05-25T11:32:29.874Z,26.10
2023-05-25T11:35:13.936Z,26.00
2023-05-25T11:38:01.800Z,26.10
2023-05-25T11:40:49.131Z,26.20
2023-05-25T11:43:37.788Z,26.30
2023-05-25T11:46:18.869Z,26.60
2023-05-25T11:49:05.939Z,27.00
2023-05-25T11:51:45.924Z,27.40
2023-05-25T11:54:29.204Z,28.00
2023-05-25T11:57:15.885Z,28.20
2023-05-25T12:00:07.331Z,28.30
2023-05-25T12:02:48.003Z,28.60
2023-05-25T12:05:43.258Z,28.70
2023-05-25T12:08:27.543Z,28.70
2023-05-25T12:11:14.941Z,28.30
2023-05-25T12:13:54.829Z,28.00
2023-05-25T12:16:42.188Z,27.80
2023-05-25T12:19:22.861Z,27.70
2023-05-25T12:22:03.432Z,27.80
2023-05-25T12:24:49.921Z,27.80
2023-05-25T12:27:37.420Z,27.90
2023-05-25T12:30:17.896Z,27.90
2023-05-25T12:33:08.074Z,27.70
2023-05-25T12:35:54.888Z,27.50
2023-05-25T12:38:42.068Z,27.30
2023-05-25T12:41:21.895Z,27.20
2023-05-25T12:44:09.087Z,27.00
2023-05-25T12:47:07.169Z,26.80
2023-05-25T12:49:54.948Z,26.50
2023-05-25T12:52:45.073Z,26.30
2023-05-25T12:55:32.955Z,26.10
2023-05-25T12:58:13.981Z,26.00
2023-05-25T13:01:00.985Z,26.00
2023-05-25T13:03:41.502Z,25.90
2023-05-25T13:06:27.941Z,25.90
2023-05-25T13:09:10.645Z,25.90
2023-05-25T13:12:24.970Z,25.80
2023-05-25T13:15:19.491Z,25.70
2023-05-25T13:18:02.326Z,25.60
2023-05-25T13:24:05.946Z,25.30
2023-05-25T13:26:53.089Z,25.20
2023-05-25T13:29:33.079Z,25.10
2023-05-25T13:32:24.835Z,25.00
2023-05-25T13:35:42.788Z,25.00
2023-05-25T13:38:31.781Z,24.90
2023-05-25T13:41:17.978Z,24.80
2023-05-25T13:44:08.970Z,24.90
2023-05-25T13:47:00.430Z,24.90
2023-05-25T13:49:43.139Z,25.10
2023-05-25T13:52:25.376Z,25.20
2023-05-25T13:55:18.476Z,25.30
2023-05-25T13:58:05.486Z,25.30
2023-05-25T14:00:48.242Z,25.30
2023-05-25T14:03:38.983Z,25.40
2023-05-25T14:06:29.184Z,25.50
2023-05-25T14:09:17.221Z,25.40
2023-05-25T14:12:03.035Z,25.20
2023-05-25T14:14:51.847Z,25.00
2023-05-25T14:17:33.891Z,24.80
2023-05-25T14:20:29.656Z,24.60
2023-05-25T14:23:16.702Z,24.50
2023-05-25T14:25:58.407Z,24.30
2023-05-25T14:28:45.463Z,24.20
2023-05-25T14:31:25.343Z,24.20
2023-05-25T14:34:12.498Z,24.10
2023-05-25T14:36:59.210Z,24.10
2023-05-25T14:39:43.395Z,23.60
2023-05-25T14:42:30.246Z,23.20
2023-05-25T14:45:11.606Z,22.90
2023-05-25T14:48:11.765Z,22.60
2023-05-25T14:50:56.235Z,22.60
2023-05-25T14:53:43.056Z,22.50
2023-05-25T14:56:28.195Z,22.50
2023-05-25T14:59:15.037Z,22.50
2023-05-25T15:01:55.268Z,22.50
2023-05-25T15:04:42.451Z,22.40
2023-05-25T15:07:22.221Z,22.50
2023-05-25T15:10:09.104Z,22.60
2023-05-25T15:12:49.217Z,22.70
2023-05-25T15:15:36.115Z,22.80
2023-05-25T15:18:16.529Z,22.80
2023-05-25T15:21:05.053Z,22.70
2023-05-25T15:23:45.216Z,22.60
2023-05-25T15:26:33.171Z,22.50
2023-05-25T15:29:13.202Z,22.30
2023-05-25T15:32:02.195Z,22.30
2023-05-25T15:34:42.233Z,22.30
2023-05-25T15:37:29.448Z,22.30
2023-05-25T15:40:16.117Z,22.40
2023-05-25T15:43:03.202Z,22.30
2023-05-25T15:45:43.366Z,22.20
2023-05-25T15:48:30.236Z,22.30
2023-05-25T15:51:10.139Z,22.20
2023-05-25T15:53:57.296Z,22.30
2023-05-25T15:56:39.166Z,22.50
2023-05-25T15:59:26.254Z,22.60
2023-05-25T16:02:06.186Z,22.80
2023-05-25T16:04:46.441Z,22.80
2023-05-25T16:07:33.130Z,22.60
2023-05-25T16:10:20.310Z,22.40
2023-05-25T16:13:00.141Z,22.50
2023-05-25T16:15:47.481Z,22.40
2023-05-25T16:18:27.223Z,22.10
2023-05-25T16:21:14.308Z,21.90
2023-05-25T16:23:54.217Z,21.60
2023-05-25T16:26:41.301Z,21.50
2023-05-25T16:29:21.160Z,21.40
2023-05-25T16:32:08.405Z,21.40
2023-05-25T16:34:48.249Z,21.50
2023-05-25T16:37:42.170Z,21.40
2023-05-25T16:40:29.346Z,21.20
2023-05-25T16:43:09.283Z,21.20
2023-05-25T16:46:03.204Z,20.90
2023-05-25T16:48:57.376Z,20.90
2023-05-25T16:51:44.710Z,20.60
2023-05-25T16:54:24.207Z,20.50
2023-05-25T16:57:12.187Z,20.60
2023-05-25T16:59:53.570Z,20.40
2023-05-25T17:02:40.548Z,20.40
2023-05-25T17:05:20.209Z,20.40
2023-05-25T17:08:07.439Z,20.30
2023-05-25T17:10:49.578Z,20.30
2023-05-25T17:13:37.062Z,20.30
2023-05-25T17:16:17.441Z,20.30
2023-05-25T17:19:04.416Z,20.30
2023-05-25T17:24:32.387Z,20.00
2023-05-25T17:27:12.241Z,20.00
2023-05-25T17:29:59.473Z,19.90
2023-05-25T17:32:39.310Z,19.80
2023-05-25T17:35:33.387Z,19.80
2023-05-25T17:38:13.560Z,19.70
2023-05-25T17:41:00.252Z,19.60
2023-05-25T17:43:40.674Z,19.50
2023-05-25T17:46:27.465Z,19.40
2023-05-25T17:49:14.537Z,19.30
2023-05-25T17:51:54.285Z,19.20
2023-05-25T17:54:41.670Z,19.30
2023-05-25T17:57:21.370Z,19.20
2023-05-25T18:00:08.704Z,19.20
2023-05-25T18:02:48.379Z,19.20
2023-05-25T18:05:35.437Z,19.10
2023-05-25T18:08:15.346Z,19.00
2023-05-25T18:11:02.479Z,19.10
2023-05-25T18:13:42.313Z,19.00
2023-05-25T18:16:29.549Z,19.00
2023-05-25T18:19:09.298Z,19.00
2023-05-25T18:21:56.529Z,18.90
2023-05-25T18:24:36.375Z,18.90
2023-05-25T18:27:23.485Z,18.70
2023-05-25T18:30:03.429Z,18.70
2023-05-25T18:32:50.504Z,18.70
2023-05-25T18:35:30.301Z,18.70
2023-05-25T18:38:17.458Z,18.70
2023-05-25T18:40:57.349Z,18.50
2023-05-25T18:43:37.593Z,18.50
2023-05-25T18:46:24.419Z,18.50
2023-05-25T18:49:11.365Z,18.60
2023-05-25T18:51:51.538Z,18.60
2023-05-25T18:54:38.398Z,18.50
2023-05-25T18:57:18.451Z,18.50
2023-05-25T19:00:05.376Z,18.50
2023-05-25T19:02:45.600Z,18.40
2023-05-25T19:05:32.432Z,18.30
2023-05-25T19:08:12.459Z,18.30
2023-05-25T19:10:59.389Z,18.20
2023-05-25T19:13:39.603Z,18.20
2023-05-25T19:16:26.443Z,18.10
2023-05-25T19:19:06.640Z,18.10
2023-05-25T19:21:53.376Z,18.00
2023-05-25T19:24:33.517Z,17.90
2023-05-25T19:27:20.414Z,17.80
2023-05-25T19:30:00.735Z,17.70
2023-05-25T19:32:47.400Z,17.60
2023-05-25T19:35:27.536Z,17.60
2023-05-25T19:38:14.401Z,17.50
2023-05-25T19:40:54.616Z,17.60
2023-05-25T19:43:41.374Z,17.50
2023-05-25T19:46:35.511Z,17.50
2023-05-25T19:49:22.413Z,17.40
2023-05-25T19:52:02.580Z,17.40
2023-05-25T19:54:50.789Z,17.40
2023-05-25T19:57:31.568Z,17.40
2023-05-25T20:00:26.082Z,17.30
2023-05-25T20:03:07.596Z,17.30
2023-05-25T20:05:55.505Z,17.20
2023-05-25T20:08:37.083Z,17.20
2023-05-25T20:11:23.540Z,17.20
2023-05-25T20:14:03.500Z,17.20
2023-05-25T20:19:24.826Z,17.00
2023-05-25T20:22:12.460Z,17.00
2023-05-25T20:25:00.942Z,17.00
2023-05-25T20:27:40.684Z,16.90
2023-05-25T20:30:27.648Z,16.90
2023-05-25T20:33:07.631Z,16.80
2023-05-25T20:35:47.947Z,16.70
2023-05-25T20:38:34.510Z,16.80
2023-05-25T20:41:21.543Z,17.10
2023-05-25T20:44:08.512Z,17.00
2023-05-25T20:46:55.504Z,16.90
2023-05-25T20:49:35.802Z,17.00
2023-05-25T20:52:22.479Z,16.80
2023-05-25T20:55:02.784Z,16.80
2023-05-25T20:57:56.598Z,16.80
2023-05-25T21:00:36.730Z,16.60
2023-05-25T21:03:23.634Z,16.70
2023-05-25T21:06:10.771Z,16.70
2023-05-25T21:08:57.524Z,16.70
2023-05-25T21:11:37.762Z,16.70
2023-05-25T21:14:24.611Z,16.70
2023-05-25T21:17:04.924Z,16.70
2023-05-25T21:19:51.558Z,16.60
2023-05-25T21:22:31.722Z,16.50
2023-05-25T21:25:18.579Z,16.50
2023-05-25T21:28:01.594Z,16.40
2023-05-25T21:30:48.542Z,16.40
2023-05-25T21:33:31.024Z,16.30
2023-05-25T21:36:17.542Z,16.30
2023-05-25T21:38:58.179Z,16.30
2023-05-25T21:41:44.545Z,16.30
2023-05-25T21:44:32.709Z,16.30
2023-05-25T21:47:26.614Z,16.30
2023-05-25T21:50:16.658Z,16.20
2023-05-25T21:53:01.539Z,16.20
2023-05-25T21:55:48.543Z,16.10
2023-05-25T21:58:28.817Z,16.10
2023-05-25T22:01:15.617Z,16.00
2023-05-25T22:03:55.834Z,15.90
2023-05-25T22:06:43.622Z,16.00
2023-05-25T22:09:23.711Z,16.00
2023-05-25T22:12:10.608Z,15.90
2023-05-25T22:14:53.828Z,16.00
2023-05-25T22:17:44.628Z,16.00
2023-05-25T22:20:24.635Z,16.00
2023-05-25T22:23:11.617Z,16.00
2023-05-25T22:25:51.650Z,16.00
2023-05-25T22:28:39.601Z,16.00
2023-05-25T22:31:22.854Z,16.00
2023-05-25T22:34:11.395Z,16.00
2023-05-25T22:36:51.835Z,15.90
2023-05-25T22:39:38.576Z,15.90
2023-05-25T22:42:28.444Z,15.90
2023-05-25T22:45:15.826Z,15.90
2023-05-25T22:48:09.708Z,15.90
2023-05-25T22:50:49.871Z,15.90
2023-05-25T22:53:36.627Z,15.90
2023-05-25T22:56:23.727Z,15.80
2023-05-25T22:59:03.723Z,15.80
2023-05-25T23:01:43.993Z,15.80
2023-05-25T23:04:30.584Z,15.70
2023-05-25T23:07:17.814Z,15.70
2023-05-25T23:09:57.667Z,15.70
2023-05-25T23:12:44.886Z,15.70
2023-05-25T23:15:25.639Z,15.70
2023-05-25T23:18:06.462Z,15.60
2023-05-25T23:20:53.725Z,15.60
2023-05-25T23:23:40.898Z,15.50
2023-05-25T23:26:20.687Z,15.50
2023-05-25T23:29:01.033Z,15.50
2023-05-25T23:31:47.698Z,15.40
2023-05-25T23:34:34.847Z,15.50
2023-05-25T23:37:14.662Z,15.40
2023-05-25T23:39:54.957Z,15.40
2023-05-25T23:42:41.644Z,15.30
2023-05-25T23:45:28.695Z,15.30
2023-05-25T23:48:22.766Z,15.30
2023-05-25T23:51:09.822Z,15.30
2023-05-25T23:53:49.823Z,15.30
2023-05-25T23:56:38.733Z,15.30
2023-05-25T23:59:18.830Z,15.30
